createdAt,value
2023-02-06T00:02:06.981Z,9.43
2023-02-06T00:07:08.808Z,8.63
2023-02-06T00:12:10.492Z,9.02
2023-02-06T00:17:12.097Z,8.60
2023-02-06T00:22:14.326Z,8.30
2023-02-06T00:27:16.148Z,7.75
2023-02-06T00:32:18.047Z,7.80
2023-02-06T00:37:19.746Z,8.65
2023-02-06T00:42:21.366Z,8.48
2023-02-06T00:47:23.102Z,8.63
2023-02-06T00:52:25.473Z,8.63
2023-02-06T00:57:27.301Z,8.10
2023-02-06T01:02:28.938Z,8.90
2023-02-06T01:07:30.792Z,8.02
2023-02-06T01:12:34.960Z,8.32
2023-02-06T01:17:37.204Z,8.15
2023-02-06T01:22:39.900Z,8.07
2023-02-06T01:27:41.545Z,8.73
2023-02-06T01:32:43.545Z,8.98
2023-02-06T01:37:45.179Z,9.30
2023-02-06T01:42:46.882Z,8.52
2023-02-06T01:47:52.388Z,8.27
2023-02-06T01:52:54.941Z,9.05
2023-02-06T01:57:57.208Z,10.10
2023-02-06T02:02:58.967Z,9.32
2023-02-06T02:08:14.785Z,9.52
2023-02-06T02:13:17.228Z,10.25
2023-02-06T02:18:38.167Z,9.07
2023-02-06T02:23:48.016Z,8.85
2023-02-06T02:28:53.550Z,9.20
2023-02-06T02:34:24.525Z,9.30
2023-02-06T02:39:53.364Z,10.18
2023-02-06T02:45:06.242Z,9.77
2023-02-06T02:50:08.507Z,10.23
2023-02-06T02:55:20.766Z,9.18
2023-02-06T03:00:25.605Z,9.82
2023-02-06T03:05:29.524Z,8.93
2023-02-06T03:10:59.227Z,9.52
2023-02-06T03:16:17.203Z,9.50
2023-02-06T03:21:21.838Z,9.75
2023-02-06T03:26:26.883Z,8.95
2023-02-06T03:31:38.956Z,9.40
2023-02-06T03:36:41.121Z,9.95
2023-02-06T03:41:45.347Z,9.88
2023-02-06T03:46:49.356Z,10.27
2023-02-06T03:52:00.174Z,9.95
2023-02-06T03:57:05.713Z,10.18
2023-02-06T04:02:08.112Z,10.02
2023-02-06T04:07:30.919Z,9.60
2023-02-06T04:12:32.757Z,10.23
2023-02-06T04:17:49.640Z,9.15
2023-02-06T04:22:55.605Z,10.30
2023-02-06T04:27:57.367Z,9.80
2023-02-06T04:32:59.032Z,9.95
2023-02-06T04:38:00.839Z,9.80
2023-02-06T04:43:02.485Z,10.05
2023-02-06T04:48:04.090Z,10.75
2023-02-06T04:53:05.897Z,10.52
2023-02-06T04:58:07.563Z,9.80
2023-02-06T05:03:09.184Z,10.23
2023-02-06T05:08:10.822Z,9.77
2023-02-06T05:13:12.714Z,9.40
2023-02-06T05:18:15.180Z,10.77
2023-02-06T05:23:16.869Z,9.55
2023-02-06T05:28:18.928Z,9.77
2023-02-06T05:33:20.783Z,9.02
2023-02-06T05:38:22.485Z,10.70
2023-02-06T05:43:24.624Z,9.43
2023-02-06T05:48:28.786Z,9.82
2023-02-06T05:53:30.423Z,10.82
2023-02-06T05:58:32.289Z,9.50
2023-02-06T06:03:34.135Z,10.77
2023-02-06T06:08:36.251Z,9.70
2023-02-06T06:13:37.888Z,9.90
2023-02-06T06:18:39.499Z,10.93
2023-02-06T06:23:41.145Z,10.32
2023-02-06T06:28:42.771Z,11.10
2023-02-06T06:33:45.147Z,11.13
2023-02-06T06:38:46.759Z,10.38
2023-02-06T06:43:50.089Z,9.40
2023-02-06T06:48:53.061Z,11.02
2023-02-06T06:53:55.090Z,11.13
2023-02-06T06:58:56.818Z,11.30
2023-02-06T07:04:00.130Z,10.90
2023-02-06T07:09:01.911Z,11.38
2023-02-06T07:14:04.663Z,11.05
2023-02-06T07:19:07.527Z,11.07
2023-02-06T07:24:09.148Z,11.13
2023-02-06T07:29:10.765Z,9.55
2023-02-06T07:34:12.806Z,10.00
2023-02-06T07:39:14.591Z,10.57
2023-02-06T07:44:16.508Z,10.90
2023-02-06T07:49:18.252Z,10.95
2023-02-06T07:54:20.884Z,11.55
2023-02-06T07:59:23.543Z,11.27
2023-02-06T08:04:25.223Z,12.80
2023-02-06T08:09:27.164Z,12.48
2023-02-06T08:14:29.106Z,11.52
2023-02-06T08:19:30.672Z,11.70
2023-02-06T08:24:32.981Z,12.23
2023-02-06T08:29:42.279Z,10.00
2023-02-06T08:34:44.554Z,11.60
2023-02-06T08:39:46.220Z,12.27
2023-02-06T08:44:48.216Z,10.40
2023-02-06T08:49:50.996Z,10.13
2023-02-06T08:54:52.969Z,11.75
2023-02-06T08:59:54.605Z,12.73
2023-02-06T09:04:56.432Z,13.48
2023-02-06T09:09:58.293Z,12.55
2023-02-06T09:15:00.099Z,11.93
2023-02-06T09:20:02.159Z,10.68
2023-02-06T09:25:03.877Z,10.77
2023-02-06T09:30:06.138Z,9.98
2023-02-06T09:35:08.004Z,10.75
2023-02-06T09:40:12.783Z,12.02
2023-02-06T09:45:21.993Z,11.23
2023-02-06T09:50:51.551Z,11.80
2023-02-06T09:56:08.210Z,12.35
2023-02-06T10:01:22.367Z,13.43
2023-02-06T10:06:28.753Z,10.77
2023-02-06T10:11:54.704Z,10.25
2023-02-06T10:17:01.272Z,10.57
2023-02-06T10:22:10.023Z,10.35
2023-02-06T10:27:14.446Z,10.93
2023-02-06T10:32:22.960Z,10.30
2023-02-06T10:42:52.536Z,10.65
2023-02-06T10:47:56.335Z,10.35
2023-02-06T10:53:03.845Z,12.90
2023-02-06T10:58:23.885Z,13.60
2023-02-06T11:03:32.713Z,15.18
2023-02-06T11:08:43.790Z,10.98
2023-02-06T11:13:48.849Z,12.27
2023-02-06T11:18:52.168Z,11.13
2023-02-06T11:24:09.963Z,10.88
2023-02-06T11:29:19.490Z,10.30
2023-02-06T11:34:23.756Z,8.20
2023-02-06T11:39:32.291Z,9.98
2023-02-06T11:44:42.049Z,22.70
2023-02-06T11:49:43.990Z,11.80
2023-02-06T11:54:54.402Z,9.57
2023-02-06T11:59:59.101Z,27.33
2023-02-06T12:05:16.591Z,9.57
2023-02-06T12:10:21.679Z,12.13
2023-02-06T12:15:45.523Z,17.92
2023-02-06T12:20:56.068Z,71.15
2023-02-06T12:26:01.693Z,25.80
2023-02-06T12:31:10.545Z,13.38
2023-02-06T12:36:20.856Z,9.55
2023-02-06T12:41:34.419Z,8.93
2023-02-06T12:46:36.676Z,8.65
2023-02-06T12:51:40.985Z,8.75
2023-02-06T12:56:50.243Z,9.35
2023-02-06T13:02:05.557Z,8.73
2023-02-06T13:07:11.289Z,8.77
2023-02-06T13:12:26.192Z,9.45
2023-02-06T13:17:44.836Z,9.07
2023-02-06T13:27:58.868Z,9.02
2023-02-06T13:33:21.031Z,8.23
2023-02-06T13:38:22.585Z,8.52
2023-02-06T13:43:28.375Z,7.72
2023-02-06T13:48:59.440Z,8.98
2023-02-06T13:54:19.899Z,9.20
2023-02-06T13:59:33.655Z,8.35
2023-02-06T14:04:35.425Z,8.35
2023-02-06T14:10:10.122Z,9.73
2023-02-06T14:15:30.695Z,10.00
2023-02-06T14:20:32.334Z,14.98
2023-02-06T14:25:40.015Z,32.85
2023-02-06T14:30:49.804Z,10.07
2023-02-06T14:36:06.918Z,16.92
2023-02-06T14:41:09.126Z,8.07
2023-02-06T14:46:15.796Z,10.07
2023-02-06T14:51:39.571Z,16.88
2023-02-06T14:56:41.360Z,16.45
2023-02-06T15:01:46.524Z,8.63
2023-02-06T15:06:54.114Z,18.27
2023-02-06T15:11:58.879Z,11.97
2023-02-06T15:17:02.554Z,14.25
2023-02-06T15:22:14.501Z,13.20
2023-02-06T15:27:28.189Z,10.20
2023-02-06T15:32:33.940Z,9.52
2023-02-06T15:37:36.164Z,9.25
2023-02-06T15:42:38.061Z,11.35
2023-02-06T15:47:41.651Z,11.18
2023-02-06T15:52:47.073Z,8.63
2023-02-06T15:57:49.547Z,9.52
2023-02-06T16:02:54.194Z,10.25
2023-02-06T16:07:56.389Z,11.13
2023-02-06T16:13:01.587Z,9.57
2023-02-06T16:18:23.503Z,10.65
2023-02-06T16:24:03.909Z,11.50
2023-02-06T16:29:08.574Z,10.80
2023-02-06T16:34:20.575Z,12.05
2023-02-06T16:39:23.626Z,11.35
2023-02-06T16:44:36.012Z,11.57
2023-02-06T16:49:48.171Z,13.18
2023-02-06T16:54:50.813Z,14.82
2023-02-06T16:59:56.504Z,13.10
2023-02-06T17:04:59.096Z,11.85
2023-02-06T17:10:02.491Z,12.27
2023-02-06T17:15:06.464Z,13.98
2023-02-06T17:20:22.916Z,11.38
2023-02-06T17:25:24.579Z,12.63
2023-02-06T17:30:29.288Z,13.27
2023-02-06T17:35:32.193Z,13.45
2023-02-06T17:40:36.206Z,11.93
2023-02-06T17:45:39.680Z,13.05
2023-02-06T17:50:42.243Z,13.55
2023-02-06T17:56:10.704Z,14.25
2023-02-06T18:01:14.092Z,10.37
2023-02-06T18:06:16.996Z,14.93
2023-02-06T18:11:21.119Z,14.60
2023-02-06T18:16:26.122Z,21.92
2023-02-06T18:21:29.423Z,16.17
2023-02-06T18:26:31.261Z,14.80
2023-02-06T18:31:35.744Z,21.77
2023-02-06T18:36:37.702Z,19.00
2023-02-06T18:41:57.932Z,19.52
2023-02-06T18:46:59.585Z,22.80
2023-02-06T18:52:01.608Z,19.83
2023-02-06T18:57:03.417Z,19.63
2023-02-06T19:02:05.237Z,16.67
2023-02-06T19:07:08.729Z,15.88
2023-02-06T19:12:10.495Z,15.90
2023-02-06T19:17:12.120Z,15.35
2023-02-06T19:22:13.817Z,15.75
2023-02-06T19:27:15.658Z,15.68
2023-02-06T19:32:17.861Z,15.90
2023-02-06T19:37:19.587Z,15.48
2023-02-06T19:42:21.403Z,17.25
2023-02-06T19:47:23.500Z,17.65
2023-02-06T19:52:25.136Z,17.85
2023-02-06T19:57:26.836Z,18.85
2023-02-06T20:02:28.528Z,19.58
2023-02-06T20:07:30.694Z,19.88
2023-02-06T20:12:32.788Z,18.80
2023-02-06T20:17:34.449Z,20.73
2023-02-06T20:22:36.380Z,19.00
2023-02-06T20:27:38.059Z,20.85
2023-02-06T20:32:39.828Z,20.83
2023-02-06T20:37:41.464Z,21.45
2023-02-06T20:42:44.531Z,22.65
2023-02-06T20:47:46.217Z,22.38
2023-02-06T20:52:47.880Z,22.38
2023-02-06T20:57:49.734Z,21.38
2023-02-06T21:02:53.091Z,23.20
2023-02-06T21:07:57.341Z,23.25
2023-02-06T21:12:59.215Z,20.98
2023-02-06T21:18:00.910Z,21.33
2023-02-06T21:23:02.833Z,22.65
2023-02-06T21:28:05.534Z,23.17
2023-02-06T21:33:07.185Z,22.23
2023-02-06T21:38:08.869Z,23.80
2023-02-06T21:43:11.085Z,22.67
2023-02-06T21:48:12.802Z,22.88
2023-02-06T21:53:14.412Z,21.67
2023-02-06T21:58:16.629Z,24.25
2023-02-06T22:03:18.267Z,22.98
2023-02-06T22:08:20.059Z,22.33
2023-02-06T22:13:21.982Z,23.50
2023-02-06T22:18:23.583Z,23.92
2023-02-06T22:23:25.271Z,27.73
2023-02-06T22:28:27.371Z,26.05
2023-02-06T22:33:28.976Z,31.13
2023-02-06T22:38:30.596Z,27.23
2023-02-06T22:43:35.049Z,25.98
2023-02-06T22:48:37.711Z,25.05
2023-02-06T22:53:40.293Z,25.05
2023-02-06T22:58:42.399Z,25.58
2023-02-06T23:03:44.008Z,25.60
2023-02-06T23:08:46.031Z,25.52
2023-02-06T23:13:52.025Z,25.75
2023-02-06T23:18:53.860Z,25.73
2023-02-06T23:24:00.766Z,26.05
2023-02-06T23:29:06.016Z,24.25
2023-02-06T23:34:07.880Z,23.60
2023-02-06T23:39:09.835Z,26.30
2023-02-06T23:44:11.802Z,26.85
2023-02-06T23:49:13.497Z,26.13
2023-02-06T23:54:15.136Z,25.02
2023-02-06T23:59:16.734Z,27.23
